Time;durP1;ratioP1;P1;durP2;ratioP2;P2;SDS_P1;SDS_P2;PMS_P1;PMS_P2;Temp;Humidity;BMP_temperature;BMP_pressure;BME280_temperature;BME280_humidity;BME280_pressure;Samples;Min_cycle;Max_cycle;Signal;HPM_P1;HPM_P2
2022/06/22 00:02:17;;;;;;;13.45;8.23;;;8.40;99.90;;;;;;4983790;28;20038;-77
2022/06/22 00:04:45;;;;;;;12.10;8.02;;;8.30;99.90;;;;;;4978702;28;20550;-78
2022/06/22 00:07:42;;;;;;;14.63;7.75;;;8.40;99.90;;;;;;4964777;28;20122;-78
2022/06/22 00:10:11;;;;;;;15.00;8.27;;;8.40;99.90;;;;;;4975095;28;20026;-78
2022/06/22 00:12:37;;;;;;;16.35;7.72;;;8.40;99.90;;;;;;4975453;28;20031;-78
2022/06/22 00:15:23;;;;;;;11.43;7.55;;;8.30;99.90;;;;;;4992438;28;20051;-78
2022/06/22 00:17:49;;;;;;;12.85;7.03;;;8.20;99.90;;;;;;4978841;28;20577;-77
2022/06/22 00:20:26;;;;;;;13.52;6.80;;;8.20;99.90;;;;;;4978709;28;20058;-78
2022/06/22 00:22:58;;;;;;;8.43;4.95;;;8.20;99.90;;;;;;4979045;28;20080;-77
2022/06/22 00:25:37;;;;;;;8.10;4.30;;;8.10;99.90;;;;;;4980192;28;20058;-77
2022/06/22 00:28:30;;;;;;;6.70;4.18;;;8.10;99.90;;;;;;4990474;28;20035;-78
2022/06/22 00:31:13;;;;;;;7.68;4.32;;;8.10;99.90;;;;;;4977147;28;20058;-78
2022/06/22 00:33:38;;;;;;;7.45;4.55;;;8.00;99.90;;;;;;4992345;28;20030;-78
2022/06/22 00:36:18;;;;;;;10.95;5.85;;;8.10;99.90;;;;;;4986174;28;20052;-78
2022/06/22 00:38:44;;;;;;;9.15;5.13;;;8.10;99.90;;;;;;4982339;28;20490;-78
2022/06/22 00:41:32;;;;;;;9.20;5.47;;;8.10;99.90;;;;;;4986619;28;20038;-78
2022/06/22 00:44:08;;;;;;;8.32;5.43;;;8.00;99.90;;;;;;4981067;28;20482;-78
2022/06/22 00:46:40;;;;;;;9.85;5.43;;;8.00;99.90;;;;;;4978715;28;20474;-78
2022/06/22 00:49:17;;;;;;;10.38;6.20;;;8.00;99.90;;;;;;4978477;28;20050;-78
2022/06/22 00:51:43;;;;;;;17.20;7.72;;;8.00;99.90;;;;;;4978868;28;20453;-78
2022/06/22 00:54:17;;;;;;;13.00;7.57;;;8.00;99.90;;;;;;4990903;28;20459;-78
2022/06/22 00:56:59;;;;;;;10.75;6.85;;;7.90;99.90;;;;;;4971296;28;20354;-78
2022/06/22 00:59:40;;;;;;;13.65;7.53;;;8.00;99.90;;;;;;4983756;28;20018;-78
2022/06/22 01:02:14;;;;;;;12.27;7.30;;;7.90;99.90;;;;;;4978087;28;20023;-78
2022/06/22 01:04:59;;;;;;;11.07;7.22;;;7.80;99.90;;;;;;4992002;28;20050;-77
2022/06/22 01:07:32;;;;;;;14.07;7.75;;;7.90;99.90;;;;;;4988241;28;20018;-78
2022/06/22 01:10:08;;;;;;;14.23;8.07;;;7.80;99.90;;;;;;4980533;28;20019;-78
2022/06/22 01:12:53;;;;;;;16.52;8.02;;;8.10;99.90;;;;;;4978046;28;20114;-78
2022/06/22 01:15:25;;;;;;;15.35;7.55;;;8.00;99.90;;;;;;4982890;28;20693;-78
2022/06/22 01:18:00;;;;;;;10.35;6.30;;;7.90;99.90;;;;;;4985076;28;20031;-78
2022/06/22 01:20:51;;;;;;;11.68;6.57;;;7.90;99.90;;;;;;4991012;28;20025;-78
2022/06/22 01:23:31;;;;;;;12.13;6.63;;;7.70;99.90;;;;;;4991735;28;20027;-78
2022/06/22 01:26:32;;;;;;;;;;;7.60;99.90;;;;;;4985891;28;20058;-77
2022/06/22 01:29:16;;;;;;;11.55;7.18;;;7.70;99.90;;;;;;4956008;28;19942;-78
2022/06/22 01:32:00;;;;;;;13.43;7.00;;;7.60;99.90;;;;;;4975798;28;20138;-78
2022/06/22 01:34:33;;;;;;;13.30;7.68;;;7.80;99.90;;;;;;4977501;28;20102;-78
2022/06/22 01:37:05;;;;;;;16.10;7.18;;;7.90;99.90;;;;;;4976979;28;20541;-78
2022/06/22 01:39:31;;;;;;;10.18;6.35;;;7.70;99.90;;;;;;4976771;28;20022;-78
2022/06/22 01:42:04;;;;;;;11.85;6.18;;;7.70;99.90;;;;;;4991577;28;20489;-78
2022/06/22 01:44:51;;;;;;;9.88;5.80;;;7.70;99.90;;;;;;4989463;28;20023;-78
2022/06/22 01:47:25;;;;;;;9.63;5.55;;;7.50;99.90;;;;;;4979382;28;20019;-78
2022/06/22 01:50:03;;;;;;;8.07;5.43;;;7.50;99.90;;;;;;4988570;28;20038;-78
2022/06/22 01:52:29;;;;;;;8.38;5.25;;;7.50;99.90;;;;;;4995591;28;20026;-78
2022/06/22 01:54:59;;;;;;;7.32;4.55;;;7.50;99.90;;;;;;4996942;28;20097;-78
2022/06/22 01:57:29;;;;;;;;;;;7.50;99.90;;;;;;4980934;28;20089;-78
2022/06/22 02:00:12;;;;;;;7.22;3.83;;;7.40;99.90;;;;;;4975978;28;20374;-78
2022/06/22 02:02:58;;;;;;;7.20;4.05;;;7.50;99.90;;;;;;4957869;29;20031;-78
2022/06/22 02:05:34;;;;;;;5.43;3.83;;;7.40;99.90;;;;;;4975673;28;20462;-78
2022/06/22 02:08:12;;;;;;;9.38;4.07;;;7.40;99.90;;;;;;4977150;28;20031;-78
2022/06/22 02:10:40;;;;;;;6.57;3.88;;;7.30;99.90;;;;;;4957980;28;20454;-78
2022/06/22 02:13:31;;;;;;;10.45;5.05;;;7.20;99.90;;;;;;4957935;28;20394;-78
2022/06/22 02:16:15;;;;;;;8.93;5.05;;;7.30;99.90;;;;;;4965193;28;20106;-78
2022/06/22 02:18:40;;;;;;;9.95;5.97;;;7.40;99.90;;;;;;4976875;28;20056;-78
2022/06/22 02:21:27;;;;;;;11.70;5.95;;;7.40;99.90;;;;;;4977409;28;20027;-78
2022/06/22 02:24:02;;;;;;;7.07;4.80;;;7.30;99.90;;;;;;4978362;28;20030;-77
2022/06/22 02:26:41;;;;;;;10.15;5.97;;;7.20;99.90;;;;;;4977351;28;20030;-78
2022/06/22 02:29:07;;;;;;;12.18;6.20;;;7.30;99.90;;;;;;4976623;28;20046;-78
2022/06/22 02:31:32;;;;;;;7.80;5.30;;;7.20;99.90;;;;;;4977229;28;20054;-78
2022/06/22 02:33:58;;;;;;;9.25;5.63;;;7.10;99.90;;;;;;4977179;28;20023;-78
2022/06/22 02:36:28;;;;;;;8.38;5.60;;;7.10;99.90;;;;;;4976203;28;20078;-78
2022/06/22 02:38:56;;;;;;;10.63;5.03;;;7.10;99.90;;;;;;4976313;28;20018;-78
2022/06/22 02:44:34;;;;;;;8.23;4.47;;;7.10;99.90;;;;;;4957998;29;20047;-78
2022/06/22 02:47:37;;;;;;;7.90;4.22;;;7.20;99.90;;;;;;4967588;28;20714;-77
2022/06/22 02:50:27;;;;;;;6.82;3.92;;;7.10;99.90;;;;;;4959450;28;20086;-78
2022/06/22 02:52:58;;;;;;;6.03;3.88;;;7.20;99.90;;;;;;4964718;28;20050;-78
2022/06/22 02:55:29;;;;;;;5.05;3.30;;;7.10;99.90;;;;;;4976267;28;20521;-78
2022/06/22 02:57:54;;;;;;;4.13;2.85;;;7.00;99.90;;;;;;4976254;28;20105;-78
2022/06/22 03:00:27;;;;;;;4.13;2.60;;;7.10;99.90;;;;;;4975903;28;20102;-78
2022/06/22 03:02:59;;;;;;;5.70;3.28;;;7.10;99.90;;;;;;4976179;28;20181;-78
2022/06/22 03:05:26;;;;;;;5.47;3.42;;;6.90;99.90;;;;;;4976026;28;20019;-78
2022/06/22 03:07:55;;;;;;;5.55;3.20;;;7.00;99.90;;;;;;4975633;28;20045;-78
2022/06/22 03:10:49;;;;;;;4.72;3.47;;;6.90;99.90;;;;;;4980890;28;20043;-78
2022/06/22 03:13:38;;;;;;;6.50;3.55;;;6.90;99.90;;;;;;4995331;28;20102;-78
2022/06/22 03:16:05;;;;;;;4.78;3.53;;;7.00;99.90;;;;;;4995234;28;20065;-78
2022/06/22 03:18:34;;;;;;;6.82;3.47;;;7.10;99.90;;;;;;4992271;28;20082;-78
2022/06/22 03:21:07;;;;;;;7.30;4.03;;;7.10;99.90;;;;;;4976029;28;20046;-78
2022/06/22 03:23:42;;;;;;;8.57;3.95;;;7.10;99.90;;;;;;4975815;28;20062;-78
2022/06/22 03:26:35;;;;;;;4.78;3.47;;;7.10;99.90;;;;;;4975682;28;20114;-78
2022/06/22 03:29:05;;;;;;;7.28;4.85;;;7.20;99.90;;;;;;4975290;28;20039;-78
2022/06/22 03:31:51;;;;;;;9.75;5.38;;;7.20;99.90;;;;;;4975431;28;20541;-78
2022/06/22 03:34:25;;;;;;;9.55;5.53;;;7.30;99.90;;;;;;4956255;28;20106;-78
2022/06/22 03:37:14;;;;;;;7.85;5.15;;;7.30;99.90;;;;;;4961633;28;20471;-78
2022/06/22 03:39:45;;;;;;;7.82;4.88;;;7.40;99.90;;;;;;4964678;28;20050;-78
2022/06/22 03:42:19;;;;;;;8.90;5.15;;;7.50;99.90;;;;;;4975670;28;20018;-78
2022/06/22 03:44:57;;;;;;;7.80;4.47;;;7.50;99.90;;;;;;4975379;28;20057;-78
2022/06/22 03:47:36;;;;;;;6.20;3.70;;;7.60;99.90;;;;;;4975782;28;20118;-78
2022/06/22 03:50:13;;;;;;;6.78;3.75;;;7.70;99.90;;;;;;4979401;28;20027;-78
2022/06/22 03:52:48;;;;;;;7.20;3.88;;;7.80;99.90;;;;;;4979524;28;20023;-78
2022/06/22 03:55:30;;;;;;;7.30;3.58;;;8.00;99.90;;;;;;4979177;28;20023;-78
2022/06/22 03:57:57;;;;;;;7.25;3.65;;;8.10;99.90;;;;;;4979224;28;20039;-79
2022/06/22 04:00:23;;;;;;;9.30;4.03;;;8.30;99.90;;;;;;4979235;28;20363;-79
2022/06/22 04:02:49;;;;;;;8.85;5.20;;;8.40;99.90;;;;;;4977753;28;20485;-79
2022/06/22 04:05:24;;;;;;;11.48;5.03;;;9.10;99.90;;;;;;4959460;28;20031;-78
2022/06/22 04:07:51;;;;;;;12.10;5.05;;;10.80;99.90;;;;;;4959766;28;20031;-79
2022/06/22 04:10:41;;;;;;;8.85;5.00;;;12.20;99.90;;;;;;4995257;28;20022;-79
2022/06/22 04:13:12;;;;;;;;;;;13.30;99.90;;;;;;4984202;28;20072;-79
2022/06/22 04:15:46;;;;;;;10.00;4.68;;;14.30;99.90;;;;;;4979079;28;19906;-79
2022/06/22 04:18:18;;;;;;;9.02;5.43;;;15.20;85.60;;;;;;4978683;28;20051;-79
2022/06/22 04:20:52;;;;;;;9.57;5.05;;;16.00;23.60;;;;;;4978718;28;20494;-79
2022/06/22 04:24:11;;;;;;;11.25;6.55;;;17.00;1.00;;;;;;4964984;28;20023;-79
2022/06/22 04:26:46;;;;;;;13.48;6.93;;;17.50;1.00;;;;;;4968692;28;20035;-79
2022/06/22 04:29:53;;;;;;;13.45;7.80;;;18.40;1.00;;;;;;4959278;28;20043;-79
2022/06/22 04:32:28;;;;;;;12.75;7.88;;;19.20;1.00;;;;;;4963747;28;20597;-79
2022/06/22 04:35:02;;;;;;;14.07;7.65;;;20.30;1.00;;;;;;4977124;28;20122;-79
2022/06/22 04:37:41;;;;;;;11.60;7.85;;;21.00;99.90;;;;;;4978631;28;20383;-79
2022/06/22 04:40:25;;;;;;;9.57;6.80;;;22.00;99.90;;;;;;4978911;28;20077;-79
2022/06/22 04:43:03;;;;;;;10.25;6.45;;;22.70;99.90;;;;;;4959641;28;20027;-79
2022/06/22 04:45:33;;;;;;;10.15;6.18;;;23.10;99.90;;;;;;4972561;28;20030;-79
2022/06/22 04:48:14;;;;;;;10.25;6.10;;;24.10;99.90;;;;;;4966811;28;20031;-79
2022/06/22 04:50:43;;;;;;;7.55;5.80;;;24.50;99.90;;;;;;4979200;28;20378;-79
2022/06/22 04:53:23;;;;;;;7.18;5.22;;;25.00;99.90;;;;;;4979135;28;20050;-79
2022/06/22 04:55:50;;;;;;;7.15;5.68;;;25.90;99.90;;;;;;4963657;28;20491;-79
2022/06/22 04:58:46;;;;;;;8.10;5.03;;;25.40;99.90;;;;;;4979072;28;20027;-79
2022/06/22 05:01:27;;;;;;;8.75;5.55;;;26.40;99.90;;;;;;4980951;28;20031;-79
2022/06/22 05:03:57;;;;;;;5.88;4.88;;;27.10;99.90;;;;;;4981547;28;20042;-79
2022/06/22 05:06:33;;;;;;;6.15;5.10;;;27.90;99.90;;;;;;4976271;28;20022;-79
2022/06/22 05:09:30;;;;;;;7.15;4.80;;;29.50;99.90;;;;;;4971833;28;20451;-79
2022/06/22 05:11:55;;;;;;;6.00;5.30;;;30.10;99.90;;;;;;4978866;28;20023;-76
2022/06/22 05:14:26;;;;;;;5.85;4.85;;;30.00;99.90;;;;;;4969812;28;20062;-79
2022/06/22 05:17:27;;;;;;;7.80;5.72;;;30.30;99.90;;;;;;4980547;28;20474;-79
2022/06/22 05:20:12;;;;;;;7.13;5.80;;;30.50;99.90;;;;;;4977116;28;20035;-79
2022/06/22 05:22:38;;;;;;;7.63;5.40;;;29.50;99.90;;;;;;4976690;28;20077;-79
2022/06/22 05:25:08;;;;;;;7.47;5.40;;;30.10;99.90;;;;;;4973443;28;20098;-79
2022/06/22 05:28:00;;;;;;;6.03;5.43;;;29.50;99.90;;;;;;4979586;28;20031;-79
2022/06/22 05:30:30;;;;;;;7.75;5.65;;;29.70;99.90;;;;;;4977679;28;20047;-79
2022/06/22 05:33:03;;;;;;;9.25;5.10;;;30.70;99.90;;;;;;4980695;28;20035;-78
2022/06/22 05:35:33;;;;;;;6.63;5.63;;;30.30;99.90;;;;;;4967475;28;20031;-77
2022/06/22 05:38:01;;;;;;;8.02;5.30;;;31.60;99.90;;;;;;4978192;28;20050;-77
2022/06/22 05:40:29;;;;;;;8.73;6.05;;;32.30;99.90;;;;;;4991296;28;20118;-77
2022/06/22 05:42:55;;;;;;;8.10;5.78;;;32.50;99.90;;;;;;4977732;28;20451;-77
2022/06/22 05:45:24;;;;;;;6.03;5.10;;;32.40;99.90;;;;;;4984861;28;20070;-77
2022/06/22 05:47:53;;;;;;;8.38;5.90;;;33.50;99.90;;;;;;4975162;28;20124;-77
2022/06/22 05:50:40;;;;;;;7.10;5.68;;;33.30;99.90;;;;;;4978219;28;20110;-77
2022/06/22 05:53:17;;;;;;;6.68;5.90;;;31.50;99.90;;;;;;4963627;28;20026;-77
2022/06/22 05:55:46;;;;;;;8.20;5.53;;;34.30;99.90;;;;;;4974776;28;20723;-78
2022/06/22 05:58:20;;;;;;;5.95;4.93;;;33.40;99.90;;;;;;4957440;28;20035;-77
2022/06/22 06:00:48;;;;;;;6.20;5.60;;;35.30;99.90;;;;;;4974976;28;20081;-77
2022/06/22 06:03:28;;;;;;;11.20;5.93;;;35.50;99.90;;;;;;4976264;28;20019;-77
2022/06/22 06:06:05;;;;;;;6.65;5.82;;;35.10;99.90;;;;;;4975873;28;20019;-77
2022/06/22 06:08:43;;;;;;;7.22;5.75;;;35.90;99.90;;;;;;4975931;28;20563;-77
2022/06/22 06:11:15;;;;;;;7.25;5.72;;;37.40;99.90;;;;;;4975677;28;20030;-77
2022/06/22 06:13:48;;;;;;;6.50;5.90;;;37.90;99.90;;;;;;4974109;28;20027;-77
2022/06/22 06:16:25;;;;;;;6.75;6.05;;;37.20;99.90;;;;;;4956385;28;20097;-77
2022/06/22 06:18:55;;;;;;;6.82;5.72;;;35.60;99.90;;;;;;4970107;28;20027;-77
2022/06/22 06:21:25;;;;;;;5.85;5.25;;;37.30;99.90;;;;;;4973124;28;20053;-77
2022/06/22 06:24:00;;;;;;;5.80;5.25;;;37.50;99.90;;;;;;4975836;28;20030;-77
2022/06/22 06:29:36;;;;;;;9.07;5.95;;;36.30;99.90;;;;;;4975634;28;20536;-77
2022/06/22 06:32:20;;;;;;;7.93;5.63;;;37.30;99.90;;;;;;4985596;28;20093;-76
2022/06/22 06:34:52;;;;;;;7.22;5.03;;;37.80;99.90;;;;;;4966089;28;20051;-76
2022/06/22 06:37:31;;;;;;;6.65;5.05;;;34.30;99.90;;;;;;4978134;28;20050;-77
2022/06/22 06:39:57;;;;;;;9.77;5.55;;;34.40;99.90;;;;;;4991355;28;20045;-76
2022/06/22 06:42:32;;;;;;;6.18;5.47;;;36.10;99.90;;;;;;4975468;28;20026;-77
2022/06/22 06:45:00;;;;;;;5.68;4.93;;;36.90;99.90;;;;;;4969044;28;20379;-76
2022/06/22 06:47:36;;;;;;;7.93;5.13;;;38.20;99.90;;;;;;4965222;28;20019;-76
2022/06/22 06:50:28;;;;;;;5.35;4.82;;;38.40;99.90;;;;;;4981577;28;20086;-76
2022/06/22 06:53:03;;;;;;;6.03;4.40;;;36.50;99.90;;;;;;4982455;28;20541;-76
2022/06/22 06:55:51;;;;;;;4.38;3.50;;;37.10;99.90;;;;;;4959277;28;20028;-76
2022/06/22 06:58:38;;;;;;;6.45;3.97;;;37.30;99.90;;;;;;4968338;28;20029;-76
2022/06/22 07:01:05;;;;;;;5.53;4.18;;;38.10;99.90;;;;;;4957321;28;20027;-76
2022/06/22 07:03:39;;;;;;;7.35;4.35;;;39.90;99.90;;;;;;4955079;28;20023;-76
2022/06/22 07:06:05;;;;;;;6.57;4.00;;;36.30;99.90;;;;;;4977350;28;20029;-77
2022/06/22 07:08:36;;;;;;;5.78;3.90;;;38.00;99.90;;;;;;4954767;28;20367;-76
2022/06/22 07:11:12;;;;;;;6.38;4.50;;;39.70;99.90;;;;;;4960866;28;20487;-76
2022/06/22 07:13:49;;;;;;;6.80;3.88;;;40.80;99.90;;;;;;4959465;28;20454;-76
2022/06/22 07:16:25;;;;;;;7.63;4.53;;;42.10;99.90;;;;;;4954639;28;20027;-76
2022/06/22 07:19:14;;;;;;;7.00;4.00;;;40.60;99.90;;;;;;4954923;28;20094;-76
2022/06/22 07:21:47;;;;;;;5.57;3.42;;;39.30;99.90;;;;;;4962108;28;20070;-76
2022/06/22 07:24:17;;;;;;;5.45;3.58;;;38.70;99.90;;;;;;4979657;28;20162;-76
2022/06/22 07:26:59;;;;;;;6.50;3.90;;;35.40;99.90;;;;;;4962165;28;20053;-76
2022/06/22 07:29:33;;;;;;;5.63;3.92;;;39.10;99.90;;;;;;4969977;28;20051;-75
2022/06/22 07:32:17;;;;;;;6.38;3.63;;;40.00;99.90;;;;;;4962100;28;20051;-77
2022/06/22 07:35:19;;;;;;;5.30;4.28;;;41.50;99.90;;;;;;4963425;28;20378;-76
2022/06/22 07:38:26;;;;;;;6.43;4.03;;;41.30;99.90;;;;;;4954384;29;20114;-76
2022/06/22 07:43:36;;;;;;;7.45;4.50;;;41.90;99.90;;;;;;4972360;28;20081;-75
2022/06/22 07:46:04;;;;;;;6.15;3.90;;;40.70;99.90;;;;;;4973538;28;20026;-76
2022/06/22 07:48:33;;;;;;;5.75;3.90;;;41.80;99.90;;;;;;4973099;28;20050;-76
2022/06/22 07:51:04;;;;;;;5.72;4.20;;;42.40;99.90;;;;;;4962956;28;20032;-76
2022/06/22 07:53:48;;;;;;;7.15;3.97;;;43.20;99.90;;;;;;4957159;28;20046;-76
2022/06/22 07:56:29;;;;;;;6.45;4.30;;;43.70;99.90;;;;;;4980845;28;20041;-77
2022/06/22 07:59:06;;;;;;;5.13;3.90;;;44.80;99.90;;;;;;4972328;28;20020;-78
2022/06/22 08:01:38;;;;;;;6.97;3.47;;;43.30;99.90;;;;;;4954951;28;20135;-77
2022/06/22 08:04:10;;;;;;;5.43;3.80;;;40.20;99.90;;;;;;4977988;28;20031;-77
2022/06/22 08:06:49;;;;;;;5.43;3.03;;;40.00;99.90;;;;;;4963883;28;20031;-76
2022/06/22 08:09:21;;;;;;;6.05;2.65;;;41.10;99.90;;;;;;4973088;28;20410;-77
2022/06/22 08:12:09;;;;;;;2.67;2.35;;;39.70;99.90;;;;;;4988537;28;20034;-77
2022/06/22 08:14:44;;;;;;;4.68;2.83;;;41.10;99.90;;;;;;4958899;28;20539;-77
2022/06/22 08:17:32;;;;;;;3.15;1.77;;;42.20;99.90;;;;;;4976850;28;20034;-76
2022/06/22 08:19:58;;;;;;;3.97;2.20;;;41.30;99.90;;;;;;4973590;28;20663;-76
2022/06/22 08:22:23;;;;;;;5.82;3.83;;;40.50;99.90;;;;;;4973520;28;20023;-76
2022/06/22 08:24:54;;;;;;;4.10;3.67;;;38.70;99.90;;;;;;4973408;28;20035;-77
2022/06/22 08:27:23;;;;;;;5.22;3.60;;;37.90;99.90;;;;;;4961214;28;20014;-77
2022/06/22 08:29:50;;;;;;;5.95;3.80;;;39.40;99.90;;;;;;4971382;28;20045;-77
2022/06/22 08:32:46;;;;;;;5.93;3.78;;;39.50;99.90;;;;;;4971326;28;20567;-77
2022/06/22 08:35:25;;;;;;;6.40;4.28;;;37.50;99.90;;;;;;4976140;28;20552;-77
2022/06/22 08:38:07;;;;;;;4.40;2.72;;;38.70;99.90;;;;;;4977137;28;20134;-77
2022/06/22 08:40:42;;;;;;;5.03;2.50;;;38.60;99.90;;;;;;4977408;28;20039;-77
2022/06/22 08:43:34;;;;;;;5.93;2.92;;;39.00;99.90;;;;;;4976821;28;20026;-77
2022/06/22 08:46:18;;;;;;;4.18;2.83;;;39.80;99.90;;;;;;4982467;28;20801;-76
2022/06/22 08:49:21;;;;;;;4.90;2.90;;;39.00;99.90;;;;;;4982342;28;20035;-77
2022/06/22 08:52:25;;;;;;;6.35;3.50;;;37.70;99.90;;;;;;4985135;28;20030;-77
2022/06/22 08:54:56;;;;;;;6.93;4.22;;;39.80;99.90;;;;;;4954719;28;20058;-76
2022/06/22 08:57:27;;;;;;;5.72;3.20;;;41.10;99.90;;;;;;4990358;28;20525;-76
2022/06/22 09:00:29;;;;;;;6.88;3.22;;;41.70;99.90;;;;;;4984252;28;20026;-76
2022/06/22 09:03:32;;;;;;;5.93;3.40;;;40.30;99.90;;;;;;4977434;28;20026;-76
2022/06/22 09:06:29;;;;;;;4.50;2.85;;;38.10;99.90;;;;;;4976427;28;20166;-77
2022/06/22 09:09:33;;;;;;;6.05;3.13;;;37.90;99.90;;;;;;4978736;28;20031;-77
2022/06/22 09:12:12;;;;;;;6.07;3.78;;;38.90;99.90;;;;;;4966085;28;20077;-76
2022/06/22 09:14:49;;;;;;;;;;;39.60;99.90;;;;;;4976551;28;20106;-76
2022/06/22 09:17:28;;;;;;;6.85;4.47;;;36.80;99.90;;;;;;4960174;28;20338;-76
2022/06/22 09:20:28;;;;;;;7.30;4.80;;;36.90;99.90;;;;;;4978110;28;20030;-76
2022/06/22 09:23:11;;;;;;;8.00;3.65;;;38.20;99.90;;;;;;4963969;28;20499;-76
2022/06/22 09:25:49;;;;;;;7.95;3.63;;;39.80;99.90;;;;;;4955334;28;20063;-76
2022/06/22 09:28:27;;;;;;;6.45;4.00;;;40.50;99.90;;;;;;4962537;28;20035;-77
2022/06/22 09:31:34;;;;;;;6.53;3.83;;;41.20;99.90;;;;;;4975390;28;20081;-76
2022/06/22 09:34:36;;;;;;;9.80;4.20;;;40.20;99.90;;;;;;4969126;28;20023;-76
2022/06/22 09:37:12;;;;;;;6.20;3.97;;;37.70;99.90;;;;;;4956672;28;20035;-76
2022/06/22 09:39:47;;;;;;;5.90;4.18;;;38.60;99.90;;;;;;4979536;28;20014;-76
2022/06/22 09:43:20;;;;;;;5.05;3.70;;;35.50;99.90;;;;;;4965759;28;20067;-76
2022/06/22 09:46:25;;;;;;;7.07;4.20;;;39.10;99.90;;;;;;4933828;29;20028;-76
2022/06/22 09:49:28;;;;;;;9.68;4.45;;;40.00;99.90;;;;;;4917228;29;20043;-76
2022/06/22 09:52:19;;;;;;;10.13;4.40;;;41.40;99.90;;;;;;4945842;28;20043;-75
2022/06/22 09:58:14;;;;;;;7.70;4.47;;;37.30;99.90;;;;;;4956513;28;20086;-78
2022/06/22 10:00:58;;;;;;;6.97;4.07;;;36.70;99.90;;;;;;4975347;28;20030;-76
2022/06/22 10:03:43;;;;;;;8.00;3.85;;;35.10;99.90;;;;;;4975062;28;20031;-76
2022/06/22 10:06:29;;;;;;;7.38;4.32;;;34.80;99.90;;;;;;4974947;28;20071;-76
2022/06/22 10:09:19;;;;;;;6.63;4.43;;;35.40;99.90;;;;;;4994561;28;20076;-76
2022/06/22 10:11:53;;;;;;;6.32;4.25;;;35.60;99.90;;;;;;4955691;29;20027;-76
2022/06/22 10:14:33;;;;;;;8.57;4.07;;;35.90;99.90;;;;;;4955703;28;20344;-76
2022/06/22 10:17:14;;;;;;;6.95;4.07;;;37.00;99.90;;;;;;4965836;28;20034;-76
2022/06/22 10:19:58;;;;;;;8.35;4.75;;;38.30;99.90;;;;;;4964777;28;20038;-76
2022/06/22 10:22:32;;;;;;;8.05;4.10;;;35.70;99.90;;;;;;4962771;28;20681;-76
2022/06/22 10:25:34;;;;;;;5.15;3.97;;;37.40;99.90;;;;;;4976584;28;20030;-76
2022/06/22 10:28:27;;;;;;;7.30;3.75;;;36.40;99.90;;;;;;4966511;28;20500;-76
2022/06/22 10:31:24;;;;;;;7.93;3.63;;;36.30;99.90;;;;;;4985891;28;20054;-76
2022/06/22 10:34:30;;;;;;;6.72;4.20;;;37.00;99.90;;;;;;4955502;28;20146;-76
2022/06/22 10:36:59;;;;;;;8.70;4.35;;;38.00;99.90;;;;;;4971906;28;20538;-76
2022/06/22 10:39:42;;;;;;;9.93;4.63;;;36.50;99.90;;;;;;4987275;28;20041;-76
2022/06/22 10:45:36;;;;;;;8.02;4.47;;;35.50;99.90;;;;;;4955444;29;20082;-77
2022/06/22 10:48:32;;;;;;;8.27;4.18;;;37.50;99.90;;;;;;4955330;28;20384;-76
2022/06/22 10:51:24;;;;;;;8.80;4.43;;;39.40;99.90;;;;;;4956581;28;20364;-76
2022/06/22 10:54:14;;;;;;;6.82;3.95;;;38.50;99.90;;;;;;4974583;28;20107;-76
2022/06/22 10:56:57;;;;;;;8.30;3.67;;;33.30;99.90;;;;;;4955237;28;20106;-76
2022/06/22 11:00:05;;;;;;;7.38;4.18;;;30.50;99.90;;;;;;4955400;28;20357;-77
2022/06/22 11:02:36;;;;;;;7.95;3.92;;;32.90;99.90;;;;;;4955243;29;20042;-76
2022/06/22 11:05:26;;;;;;;5.90;3.55;;;35.90;99.90;;;;;;4955392;28;20050;-77
2022/06/22 11:08:10;;;;;;;6.07;4.55;;;34.80;99.90;;;;;;4955241;29;20114;-76
2022/06/22 11:11:00;;;;;;;6.35;4.32;;;33.60;99.90;;;;;;4971664;28;20054;-76
2022/06/22 11:13:43;;;;;;;8.00;4.10;;;34.50;99.90;;;;;;4974636;28;20023;-76
2022/06/22 11:16:33;;;;;;;11.07;5.20;;;34.60;99.90;;;;;;4974557;28;20477;-76
2022/06/22 11:19:29;;;;;;;5.13;4.28;;;34.50;99.90;;;;;;4955411;28;20440;-76
2022/06/22 11:22:06;;;;;;;8.13;4.65;;;34.20;99.90;;;;;;4957573;28;20086;-76
2022/06/22 11:25:05;;;;;;;8.48;4.47;;;30.10;99.90;;;;;;4974776;28;20030;-76
2022/06/22 11:30:57;;;;;;;9.30;5.00;;;28.00;99.90;;;;;;4963834;28;20065;-76
2022/06/22 11:33:31;;;;;;;6.65;4.63;;;28.10;99.90;;;;;;4974560;28;20482;-76
2022/06/22 11:36:08;;;;;;;7.65;4.15;;;28.30;99.90;;;;;;4974207;28;20054;-77
2022/06/22 11:39:06;;;;;;;7.32;4.45;;;28.00;99.90;;;;;;4974051;28;20023;-77
2022/06/22 11:41:32;;;;;;;7.82;4.80;;;27.60;99.90;;;;;;4962064;28;20032;-78
2022/06/22 11:44:29;;;;;;;9.02;5.50;;;27.30;99.90;;;;;;4956169;28;20028;-79
2022/06/22 11:46:56;;;;;;;6.53;4.97;;;26.40;99.90;;;;;;4974538;28;20379;-77
2022/06/22 11:49:40;;;;;;;8.82;4.85;;;27.30;99.90;;;;;;4968764;28;20031;-76
2022/06/22 11:52:44;;;;;;;7.38;4.00;;;27.00;99.90;;;;;;4954837;28;20078;-76
2022/06/22 11:55:23;;;;;;;6.65;4.68;;;26.60;99.90;;;;;;4954545;28;20379;-77
2022/06/22 11:58:07;;;;;;;6.72;5.10;;;26.40;99.90;;;;;;4954882;28;20028;-76
2022/06/22 12:00:42;;;;;;;7.97;5.03;;;26.10;99.90;;;;;;4955210;29;20087;-77
2022/06/22 12:03:10;;;;;;;8.70;5.32;;;26.20;99.90;;;;;;4954759;29;20042;-76
2022/06/22 12:06:00;;;;;;;7.13;5.50;;;26.20;99.90;;;;;;4954844;28;20074;-76
2022/06/22 12:08:48;;;;;;;9.55;4.35;;;25.90;99.90;;;;;;4954751;28;20027;-75
2022/06/22 12:11:28;;;;;;;9.07;4.82;;;26.40;99.90;;;;;;4964965;28;20082;-75
2022/06/22 12:17:22;;;;;;;7.05;3.90;;;26.70;99.90;;;;;;4958739;29;20545;-76
2022/06/22 12:19:53;;;;;;;7.07;4.28;;;26.60;99.90;;;;;;4958770;28;20019;-77
2022/06/22 12:22:26;;;;;;;5.88;4.10;;;26.80;99.90;;;;;;4958717;28;20027;-78
2022/06/22 12:25:22;;;;;;;8.65;4.28;;;26.40;99.90;;;;;;4959473;28;20038;-77
2022/06/22 12:28:15;;;;;;;7.78;4.45;;;25.40;99.90;;;;;;4966198;28;20584;-77
2022/06/22 12:30:50;;;;;;;8.63;4.32;;;25.00;99.90;;;;;;4963785;28;20126;-77
2022/06/22 12:33:31;;;;;;;7.65;5.10;;;25.40;99.90;;;;;;4961310;28;20625;-77
2022/06/22 12:36:21;;;;;;;8.93;5.63;;;25.40;99.90;;;;;;4961209;28;20078;-77
2022/06/22 12:38:51;;;;;;;7.95;5.22;;;24.60;99.90;;;;;;4973371;28;20023;-77
2022/06/22 12:41:54;;;;;;;10.90;5.80;;;24.50;99.90;;;;;;4977890;28;20019;-76
2022/06/22 12:44:57;;;;;;;9.15;5.13;;;24.60;99.90;;;;;;4973727;28;20066;-76
2022/06/22 12:47:46;;;;;;;8.98;5.95;;;25.10;99.90;;;;;;4957675;28;20494;-76
2022/06/22 12:50:33;;;;;;;9.90;5.77;;;24.70;99.90;;;;;;4974489;28;20070;-76
2022/06/22 12:53:13;;;;;;;11.32;6.38;;;24.40;99.90;;;;;;4987775;28;20482;-76
2022/06/22 12:55:44;;;;;;;6.90;5.38;;;24.20;99.90;;;;;;4983203;28;20027;-76
2022/06/22 12:58:18;;;;;;;7.53;4.78;;;24.30;99.90;;;;;;4982308;28;20031;-76
2022/06/22 13:00:44;;;;;;;11.65;6.10;;;24.70;99.90;;;;;;4981492;28;20035;-77
2022/06/22 13:03:20;;;;;;;10.00;5.72;;;24.00;99.90;;;;;;4980246;28;20018;-77
2022/06/22 13:05:46;;;;;;;9.40;6.30;;;23.90;99.90;;;;;;4977703;28;20103;-77
2022/06/22 13:08:21;;;;;;;11.50;4.70;;;24.30;99.90;;;;;;4977486;28;20035;-76
2022/06/22 13:10:51;;;;;;;10.68;4.40;;;24.50;99.90;;;;;;4976956;28;20031;-76
2022/06/22 13:13:16;;;;;;;7.18;5.50;;;24.70;99.90;;;;;;4977209;28;20031;-76
2022/06/22 13:15:51;;;;;;;8.07;5.43;;;24.40;99.90;;;;;;4976679;28;20034;-76
2022/06/22 13:18:32;;;;;;;7.18;4.95;;;24.30;99.90;;;;;;4975123;28;20023;-76
2022/06/22 13:21:19;;;;;;;7.85;5.32;;;24.10;99.90;;;;;;4975378;28;20572;-76
2022/06/22 13:23:50;;;;;;;9.40;5.15;;;23.60;99.90;;;;;;4956960;28;20042;-76
2022/06/22 13:26:20;;;;;;;8.52;5.47;;;23.80;99.90;;;;;;4970840;28;20031;-76
2022/06/22 13:28:51;;;;;;;6.90;4.55;;;23.70;99.90;;;;;;4982814;28;20034;-77
2022/06/22 13:31:27;;;;;;;6.80;5.25;;;23.60;99.90;;;;;;4982701;28;20051;-76
2022/06/22 13:33:58;;;;;;;6.88;4.15;;;23.30;99.90;;;;;;4956948;28;20052;-76
2022/06/22 13:36:24;;;;;;;7.88;4.40;;;23.10;99.90;;;;;;4970121;28;20410;-76
2022/06/22 13:39:15;;;;;;;8.15;5.38;;;23.30;99.90;;;;;;4975923;28;20039;-76
2022/06/22 13:41:50;;;;;;;7.80;4.75;;;22.90;99.90;;;;;;4975885;28;20037;-76
2022/06/22 13:44:40;;;;;;;8.52;5.32;;;22.90;99.90;;;;;;4976330;28;20069;-77
2022/06/22 13:47:44;;;;;;;11.45;4.78;;;22.70;99.90;;;;;;4989722;28;20030;-76
2022/06/22 13:50:32;;;;;;;9.60;5.35;;;23.10;99.90;;;;;;4989175;28;20490;-76
2022/06/22 13:53:10;;;;;;;7.40;4.75;;;23.00;99.90;;;;;;4985864;28;20394;-75
2022/06/22 13:55:53;;;;;;;10.35;5.95;;;22.60;99.90;;;;;;4978094;28;20021;-77
2022/06/22 13:58:37;;;;;;;7.25;4.90;;;22.60;99.90;;;;;;4975728;28;20477;-75
2022/06/22 14:01:19;;;;;;;7.00;4.30;;;22.50;99.90;;;;;;4968921;28;20053;-76
2022/06/22 14:03:53;;;;;;;14.23;6.32;;;22.50;99.90;;;;;;4980616;28;20118;-76
2022/06/22 14:06:48;;;;;;;9.05;5.50;;;22.40;99.90;;;;;;4975440;28;20031;-76
2022/06/22 14:09:19;;;;;;;12.05;5.45;;;22.50;99.90;;;;;;4989066;28;20031;-76
2022/06/22 14:12:09;;;;;;;11.77;6.45;;;22.80;99.90;;;;;;4985641;28;20128;-76
2022/06/22 14:15:15;;;;;;;10.38;5.45;;;22.60;99.90;;;;;;4965576;28;20106;-75